createdAt,value
2023-01-30T00:04:17.583Z,96.08
2023-01-30T00:09:19.414Z,96.49
2023-01-30T00:14:21.080Z,95.80
2023-01-30T00:19:22.697Z,97.02
2023-01-30T00:24:24.378Z,97.12
2023-01-30T00:29:26.247Z,97.67
2023-01-30T00:34:29.275Z,97.40
2023-01-30T00:39:31.060Z,98.20
2023-01-30T00:44:51.330Z,98.69
2023-01-30T00:49:52.935Z,98.97
2023-01-30T00:54:54.614Z,98.64
2023-01-30T00:59:56.377Z,98.55
2023-01-30T01:04:57.996Z,98.61
2023-01-30T01:10:01.592Z,98.32
2023-01-30T01:15:03.312Z,97.93
2023-01-30T01:20:05.809Z,98.18
2023-01-30T01:25:10.668Z,98.22
2023-01-30T01:30:14.800Z,98.77
2023-01-30T01:35:20.063Z,97.97
2023-01-30T01:40:42.141Z,98.42
2023-01-30T01:45:44.550Z,99.00
2023-01-30T01:51:17.599Z,97.82
2023-01-30T01:56:20.883Z,98.59
2023-01-30T02:01:23.062Z,98.03
2023-01-30T02:06:29.392Z,98.90
2023-01-30T02:11:41.710Z,99.98
2023-01-30T02:16:46.184Z,99.75
2023-01-30T02:22:14.101Z,99.31
2023-01-30T02:27:41.601Z,98.55
2023-01-30T02:32:58.229Z,100.00
2023-01-30T02:38:16.692Z,100.00
2023-01-30T02:43:18.235Z,99.77
2023-01-30T02:48:30.614Z,99.19
2023-01-30T02:53:42.311Z,98.90
2023-01-30T02:59:08.727Z,99.05
2023-01-30T03:04:27.732Z,98.99
2023-01-30T03:09:42.434Z,99.17
2023-01-30T03:15:23.331Z,99.58
2023-01-30T03:20:39.205Z,98.62
2023-01-30T03:25:43.534Z,98.17
2023-01-30T03:30:45.452Z,96.84
2023-01-30T03:35:49.335Z,96.88
2023-01-30T03:40:51.154Z,96.53
2023-01-30T03:45:52.915Z,96.69
2023-01-30T03:50:56.258Z,97.89
2023-01-30T03:55:58.203Z,96.72
2023-01-30T04:01:05.488Z,96.21
2023-01-30T04:06:07.530Z,95.45
2023-01-30T04:11:09.816Z,93.82
2023-01-30T04:16:23.323Z,92.91
2023-01-30T04:21:48.264Z,92.47
2023-01-30T04:26:50.113Z,92.17
2023-01-30T04:31:51.797Z,91.85
2023-01-30T04:37:06.207Z,91.76
2023-01-30T04:42:08.251Z,92.12
2023-01-30T04:47:17.971Z,90.85
2023-01-30T04:52:19.657Z,90.06
2023-01-30T04:57:30.303Z,89.02
2023-01-30T05:02:32.014Z,88.45
2023-01-30T05:07:33.620Z,88.50
2023-01-30T05:12:35.291Z,88.03
2023-01-30T05:17:39.255Z,88.18
2023-01-30T05:22:40.820Z,88.41
2023-01-30T05:27:42.427Z,87.66
2023-01-30T05:32:44.160Z,87.44
2023-01-30T05:37:50.734Z,87.22
2023-01-30T05:42:52.464Z,86.79
2023-01-30T05:47:58.488Z,87.66
2023-01-30T05:53:04.931Z,87.64
2023-01-30T05:58:07.539Z,86.50
2023-01-30T06:03:09.357Z,86.29
2023-01-30T06:08:12.695Z,85.88
2023-01-30T06:13:14.325Z,86.67
2023-01-30T06:18:18.362Z,87.14
2023-01-30T06:23:21.624Z,86.38
2023-01-30T06:28:25.233Z,87.77
2023-01-30T06:33:27.071Z,87.08
2023-01-30T06:38:28.796Z,87.64
2023-01-30T06:43:36.404Z,87.54
2023-01-30T06:48:38.656Z,87.90
2023-01-30T06:53:40.499Z,87.99
2023-01-30T06:58:42.383Z,87.79
2023-01-30T07:03:44.039Z,88.28
2023-01-30T07:08:45.898Z,88.28
2023-01-30T07:13:53.851Z,87.49
2023-01-30T07:18:58.738Z,87.47
2023-01-30T07:24:00.419Z,86.57
2023-01-30T07:29:02.388Z,86.69
2023-01-30T07:34:05.299Z,86.99
2023-01-30T07:39:08.135Z,87.19
2023-01-30T07:44:14.804Z,86.59
2023-01-30T07:49:16.472Z,86.39
2023-01-30T07:54:18.397Z,86.86
2023-01-30T07:59:20.190Z,86.79
2023-01-30T08:04:21.886Z,86.70
2023-01-30T08:09:23.536Z,87.05
2023-01-30T08:14:25.553Z,86.79
2023-01-30T08:19:27.415Z,87.02
2023-01-30T08:24:29.005Z,86.08
2023-01-30T08:29:30.665Z,86.32
2023-01-30T08:34:32.668Z,85.99
2023-01-30T08:39:36.398Z,85.49
2023-01-30T08:44:38.757Z,86.47
2023-01-30T08:49:40.353Z,87.06
2023-01-30T08:54:41.928Z,88.03
2023-01-30T08:59:43.532Z,89.06
2023-01-30T09:04:45.095Z,89.09
2023-01-30T09:09:48.538Z,88.57
2023-01-30T09:14:50.261Z,89.23
2023-01-30T09:19:51.894Z,89.50
2023-01-30T09:24:53.462Z,89.59
2023-01-30T09:29:55.091Z,89.53
2023-01-30T09:34:56.616Z,89.10
2023-01-30T09:39:58.903Z,87.43
2023-01-30T09:45:16.374Z,87.29
2023-01-30T09:50:41.619Z,86.73
2023-01-30T09:55:46.351Z,87.51
2023-01-30T10:00:51.683Z,87.80
2023-01-30T10:05:59.063Z,87.73
2023-01-30T10:11:10.919Z,88.75
2023-01-30T10:16:21.547Z,90.01
2023-01-30T10:21:41.788Z,90.58
2023-01-30T10:26:43.856Z,92.05
2023-01-30T10:31:50.366Z,93.05
2023-01-30T10:37:00.117Z,94.04
2023-01-30T10:42:10.880Z,93.90
2023-01-30T10:47:47.557Z,93.77
2023-01-30T10:53:22.786Z,95.13
2023-01-30T10:58:35.952Z,95.62
2023-01-30T11:03:48.412Z,96.94
2023-01-30T11:08:51.196Z,96.79
2023-01-30T11:14:05.504Z,97.64
2023-01-30T11:19:19.756Z,98.04
2023-01-30T11:24:31.657Z,98.19
2023-01-30T11:29:35.282Z,98.76
2023-01-30T11:34:36.946Z,99.84
2023-01-30T11:39:50.364Z,100.00
2023-01-30T11:45:06.580Z,100.00
2023-01-30T11:50:30.752Z,100.00
2023-01-30T11:55:36.841Z,100.00
2023-01-30T12:00:41.342Z,100.00
2023-01-30T12:05:46.118Z,100.00
2023-01-30T12:10:51.620Z,100.00
2023-01-30T12:16:13.119Z,100.00
2023-01-30T12:21:26.246Z,100.00
2023-01-30T12:26:40.973Z,100.00
2023-01-30T12:32:13.842Z,100.00
2023-01-30T12:37:19.750Z,100.00
2023-01-30T12:42:30.568Z,100.00
2023-01-30T12:47:44.095Z,100.00
2023-01-30T12:53:01.861Z,100.00
2023-01-30T12:58:26.498Z,100.00
2023-01-30T13:03:45.375Z,100.00
2023-01-30T13:09:00.328Z,100.00
2023-01-30T13:14:09.627Z,100.00
2023-01-30T13:19:41.197Z,100.00
2023-01-30T13:25:15.731Z,100.00
2023-01-30T13:30:18.781Z,100.00
2023-01-30T13:35:26.682Z,100.00
2023-01-30T13:40:38.637Z,100.00
2023-01-30T13:45:45.316Z,100.00
2023-01-30T13:50:59.262Z,100.00
2023-01-30T13:56:40.231Z,100.00
2023-01-30T14:02:04.299Z,100.00
2023-01-30T14:07:11.955Z,100.00
2023-01-30T14:12:23.835Z,100.00
2023-01-30T14:17:25.446Z,100.00
2023-01-30T14:22:51.919Z,100.00
2023-01-30T14:27:59.320Z,100.00
2023-01-30T14:33:02.874Z,100.00
2023-01-30T14:38:04.904Z,100.00
2023-01-30T14:43:12.465Z,100.00
2023-01-30T14:48:36.911Z,100.00
2023-01-30T14:53:53.073Z,100.00
2023-01-30T14:59:02.051Z,100.00
2023-01-30T15:04:04.939Z,100.00
2023-01-30T15:09:09.266Z,100.00
2023-01-30T15:14:32.038Z,100.00
2023-01-30T15:19:59.517Z,100.00
2023-01-30T15:25:06.724Z,100.00
2023-01-30T15:30:17.095Z,100.00
2023-01-30T15:35:18.932Z,100.00
2023-01-30T15:40:25.315Z,100.00
2023-01-30T15:45:52.095Z,100.00
2023-01-30T15:50:56.925Z,100.00
2023-01-30T15:56:01.752Z,100.00
2023-01-30T16:01:03.790Z,100.00
2023-01-30T16:06:05.635Z,100.00
2023-01-30T16:11:07.207Z,100.00
2023-01-30T16:16:20.049Z,100.00
2023-01-30T16:21:37.534Z,100.00
2023-01-30T16:26:43.245Z,100.00
2023-01-30T16:31:47.419Z,100.00
2023-01-30T16:36:51.412Z,100.00
2023-01-30T16:41:57.525Z,100.00
2023-01-30T16:47:06.354Z,100.00
2023-01-30T16:52:25.743Z,100.00
2023-01-30T16:57:43.255Z,100.00
2023-01-30T17:03:18.744Z,100.00
2023-01-30T17:08:55.523Z,100.00
2023-01-30T17:14:23.213Z,100.00
2023-01-30T17:19:24.732Z,100.00
2023-01-30T17:24:26.380Z,100.00
2023-01-30T17:29:42.723Z,100.00
2023-01-30T17:34:46.721Z,100.00
2023-01-30T17:39:48.722Z,100.00
2023-01-30T17:44:50.321Z,100.00
2023-01-30T17:49:51.895Z,100.00
2023-01-30T17:54:53.463Z,100.00
2023-01-30T17:59:55.299Z,100.00
2023-01-30T18:04:56.815Z,100.00
2023-01-30T18:09:58.449Z,100.00
2023-01-30T18:14:59.946Z,100.00
2023-01-30T18:20:03.578Z,100.00
2023-01-30T18:25:05.605Z,100.00
2023-01-30T18:30:07.777Z,100.00
2023-01-30T18:35:09.921Z,100.00
2023-01-30T18:40:15.073Z,100.00
2023-01-30T18:45:16.689Z,100.00
2023-01-30T18:50:18.521Z,100.00
2023-01-30T18:55:20.588Z,100.00
2023-01-30T19:00:22.868Z,100.00
2023-01-30T19:05:24.735Z,100.00
2023-01-30T19:10:26.470Z,100.00
2023-01-30T19:15:28.458Z,100.00
2023-01-30T19:20:31.068Z,100.00
2023-01-30T19:25:32.793Z,100.00
2023-01-30T19:30:34.367Z,100.00
2023-01-30T19:35:35.924Z,100.00
2023-01-30T19:40:45.914Z,100.00
2023-01-30T19:45:57.439Z,100.00
2023-01-30T19:51:02.690Z,100.00
2023-01-30T19:56:05.186Z,100.00
2023-01-30T20:01:07.794Z,100.00
2023-01-30T20:06:17.822Z,100.00
2023-01-30T20:11:21.752Z,100.00
2023-01-30T20:16:27.083Z,100.00
2023-01-30T20:21:30.378Z,100.00
2023-01-30T20:26:35.179Z,100.00
2023-01-30T20:31:40.407Z,100.00
2023-01-30T20:36:42.072Z,100.00
2023-01-30T20:41:43.638Z,100.00
2023-01-30T20:46:46.302Z,100.00
2023-01-30T20:51:50.211Z,100.00
2023-01-30T20:56:53.645Z,100.00
2023-01-30T21:01:55.281Z,100.00
2023-01-30T21:06:56.839Z,100.00
2023-01-30T21:12:01.001Z,100.00
2023-01-30T21:17:02.629Z,100.00
2023-01-30T21:22:09.481Z,100.00
2023-01-30T21:27:11.016Z,100.00
2023-01-30T21:32:12.591Z,100.00
2023-01-30T21:37:32.894Z,100.00
2023-01-30T21:42:53.013Z,100.00
2023-01-30T21:47:54.572Z,100.00
2023-01-30T21:52:56.378Z,100.00
2023-01-30T21:57:58.026Z,100.00
2023-01-30T22:02:59.524Z,100.00
2023-01-30T22:08:01.031Z,100.00
2023-01-30T22:13:02.559Z,100.00
2023-01-30T22:18:04.244Z,100.00
2023-01-30T22:23:05.781Z,100.00
2023-01-30T22:28:09.385Z,100.00
2023-01-30T22:33:11.696Z,100.00
2023-01-30T22:38:13.222Z,100.00
2023-01-30T22:43:14.775Z,100.00
2023-01-30T22:48:16.946Z,100.00
2023-01-30T22:53:18.462Z,100.00
2023-01-30T22:58:22.395Z,100.00
2023-01-30T23:03:24.025Z,100.00
2023-01-30T23:08:26.628Z,100.00
2023-01-30T23:13:28.135Z,100.00
2023-01-30T23:18:48.217Z,100.00
2023-01-30T23:23:59.195Z,100.00
2023-01-30T23:29:02.448Z,100.00
2023-01-30T23:34:06.280Z,100.00
2023-01-30T23:39:07.968Z,100.00
2023-01-30T23:44:10.007Z,100.00
2023-01-30T23:49:13.679Z,100.00
2023-01-30T23:54:15.195Z,100.00
2023-01-30T23:59:16.717Z,100.00
